Time;durP1;ratioP1;P1;durP2;ratioP2;P2;SDS_P1;SDS_P2;PMS_P1;PMS_P2;Temp;Humidity;BMP_temperature;BMP_pressure;BME280_temperature;BME280_humidity;BME280_pressure;Samples;Min_cycle;Max_cycle;Signal;HPM_P1;HPM_P2
2023/06/05 00:00:24;;;;;;;;;;;14.60;99.90;;;;;;4982854;28;19925;-67
2023/06/05 00:02:50;;;;;;;;;;;14.60;99.90;;;;;;4984690;28;20028;-67
2023/06/05 00:05:25;;;;;;;;;;;14.60;99.90;;;;;;4977439;28;19926;-68
2023/06/05 00:07:57;;;;;;;;;;;14.60;99.90;;;;;;4987520;28;19930;-67
2023/06/05 00:10:29;;;;;;;;;;;14.60;99.90;;;;;;4987392;28;20294;-67
2023/06/05 00:13:01;;;;;;;;;;;14.60;99.90;;;;;;4973541;28;19926;-68
2023/06/05 00:15:35;;;;;;;;;;;14.60;99.90;;;;;;4973853;28;19933;-68
2023/06/05 00:18:03;;;;;;;;;;;14.60;99.90;;;;;;4976245;28;20016;-68
2023/06/05 00:20:35;;;;;;;;;;;14.70;99.90;;;;;;4976936;28;19926;-66
2023/06/05 00:23:08;;;;;;;;;;;14.60;99.90;;;;;;4981974;28;20643;-65
2023/06/05 00:25:40;;;;;;;;;;;14.60;99.90;;;;;;4986372;28;19926;-65
2023/06/05 00:28:12;;;;;;;;;;;14.60;99.90;;;;;;4976539;28;20377;-67
2023/06/05 00:30:39;;;;;;;;;;;14.50;99.90;;;;;;4988201;28;20310;-67
2023/06/05 00:33:06;;;;;;;;;;;14.50;99.90;;;;;;4987877;28;20016;-66
2023/06/05 00:35:38;;;;;;;;;;;14.50;99.90;;;;;;4987283;28;20317;-66
2023/06/05 00:38:10;;;;;;;;;;;14.50;99.90;;;;;;4987370;28;19933;-66
2023/06/05 00:40:42;;;;;;;;;;;14.50;99.90;;;;;;4989762;28;20481;-66
2023/06/05 00:43:14;;;;;;;;;;;14.50;99.90;;;;;;4985240;28;19977;-66
2023/06/05 00:45:46;;;;;;;;;;;14.50;99.90;;;;;;4981775;28;19932;-66
2023/06/05 00:48:18;;;;;;;;;;;14.50;99.90;;;;;;4978822;28;19985;-66
2023/06/05 00:50:50;;;;;;;;;;;14.50;99.90;;;;;;4980957;28;20495;-66
2023/06/05 00:53:23;;;;;;;;;;;14.40;99.90;;;;;;4982254;28;20015;-66
2023/06/05 00:55:57;;;;;;;;;;;14.40;99.90;;;;;;4984481;28;19993;-66
2023/06/05 00:58:24;;;;;;;;;;;14.30;99.90;;;;;;4986710;28;20476;-66
2023/06/05 01:00:54;;;;;;;;;;;14.30;99.90;;;;;;4987508;28;19980;-66
2023/06/05 01:03:29;;;;;;;;;;;14.40;99.90;;;;;;4986331;28;19932;-67
2023/06/05 01:06:04;;;;;;;;;;;14.30;99.90;;;;;;4986057;28;20037;-65
2023/06/05 01:08:38;;;;;;;;;;;14.30;99.90;;;;;;4977183;28;19968;-66
2023/06/05 01:11:20;;;;;;;;;;;14.30;99.90;;;;;;4988618;28;20024;-65
2023/06/05 01:14:04;;;;;;;;;;;14.30;99.90;;;;;;4995754;28;19957;-68
2023/06/05 01:16:37;;;;;;;;;;;14.30;99.90;;;;;;4975065;28;20303;-67
2023/06/05 01:19:14;;;;;;;;;;;14.30;99.90;;;;;;4985086;28;20310;-66
2023/06/05 01:21:47;;;;;;;;;;;14.30;99.90;;;;;;4990902;28;20454;-66
2023/06/05 01:24:22;;;;;;;;;;;14.30;99.90;;;;;;4992702;28;19932;-68
2023/06/05 01:26:52;;;;;;;;;;;14.20;99.90;;;;;;4992860;28;19925;-66
2023/06/05 01:29:26;;;;;;;;;;;14.20;99.90;;;;;;4991102;28;19929;-65
2023/06/05 01:32:03;;;;;;;;;;;14.20;99.90;;;;;;4979304;28;19940;-66
2023/06/05 01:34:30;;;;;;;;;;;14.10;99.90;;;;;;4986946;28;19930;-66
2023/06/05 01:37:02;;;;;;;;;;;14.10;99.90;;;;;;4984545;28;20381;-65
2023/06/05 01:39:30;;;;;;;;;;;14.10;99.90;;;;;;4982439;28;20017;-65
2023/06/05 01:42:02;;;;;;;;;;;14.10;99.90;;;;;;4980716;28;19930;-66
2023/06/05 01:44:34;;;;;;;;;;;14.10;99.90;;;;;;4975795;28;19932;-66
2023/06/05 01:47:06;;;;;;;;;;;14.10;99.90;;;;;;4990692;28;19926;-65
2023/06/05 01:49:33;;;;;;;;;;;14.10;99.90;;;;;;4993522;28;19969;-65
2023/06/05 01:52:07;;;;;;;;;;;14.00;99.90;;;;;;4982975;28;19926;-67
2023/06/05 01:54:42;;;;;;;;;;;13.90;99.90;;;;;;4977217;28;20291;-66
2023/06/05 01:57:14;;;;;;;;;;;13.90;99.90;;;;;;4987608;28;20493;-65
2023/06/05 01:59:49;;;;;;;;;;;13.90;99.90;;;;;;4965659;28;19926;-66
2023/06/05 02:02:16;;;;;;;;;;;13.90;99.90;;;;;;4992119;28;19965;-66
2023/06/05 02:04:48;;;;;;;;;;;13.90;99.90;;;;;;4984116;28;19930;-68
2023/06/05 02:07:21;;;;;;;;;;;13.90;99.90;;;;;;4986222;28;19990;-66
2023/06/05 02:09:53;;;;;;;;;;;13.80;99.90;;;;;;4970398;28;19930;-66
2023/06/05 02:12:26;;;;;;;;;;;13.80;99.90;;;;;;4973988;28;19926;-66
2023/06/05 02:14:58;;;;;;;;;;;13.80;99.90;;;;;;4992502;28;19932;-66
2023/06/05 02:17:30;;;;;;;;;;;13.70;99.90;;;;;;4991412;28;20271;-67
2023/06/05 02:20:03;;;;;;;;;;;13.70;99.90;;;;;;4989080;28;19949;-66
2023/06/05 02:22:30;;;;;;;;;;;13.70;99.90;;;;;;4987326;28;19955;-66
2023/06/05 02:25:02;;;;;;;;;;;13.60;99.90;;;;;;4985359;28;19926;-66
2023/06/05 02:27:34;;;;;;;;;;;13.70;99.90;;;;;;4981280;28;19937;-66
2023/06/05 02:30:06;;;;;;;;;;;13.60;99.90;;;;;;4979909;28;19930;-65
2023/06/05 02:32:33;;;;;;;;;;;13.50;99.90;;;;;;4990735;28;19933;-66
2023/06/05 02:35:00;;;;;;;;;;;13.40;99.90;;;;;;4991981;28;19937;-66
2023/06/05 02:37:27;;;;;;;;;;;13.40;99.90;;;;;;4990304;28;19926;-67
2023/06/05 02:39:59;;;;;;;;;;;13.30;99.90;;;;;;4991767;28;19926;-67
2023/06/05 02:42:32;;;;;;;;;;;13.30;99.90;;;;;;4990969;28;19926;-67
2023/06/05 02:44:59;;;;;;;;;;;13.30;99.90;;;;;;4988718;28;19930;-67
2023/06/05 02:47:31;;;;;;;;;;;13.20;99.90;;;;;;4986777;28;19926;-67
2023/06/05 02:50:04;;;;;;;;;;;13.20;99.90;;;;;;4982124;28;20355;-67
2023/06/05 02:52:40;;;;;;;;;;;13.10;99.90;;;;;;4974673;28;20028;-67
2023/06/05 02:55:13;;;;;;;;;;;13.10;99.90;;;;;;4987372;28;19926;-67
2023/06/05 02:57:48;;;;;;;;;;;13.20;99.90;;;;;;4986254;28;20409;-67
2023/06/05 03:00:27;;;;;;;;;;;13.20;99.90;;;;;;4972484;28;19930;-67
2023/06/05 03:03:00;;;;;;;;;;;13.20;99.90;;;;;;4971037;28;19930;-67
2023/06/05 03:05:35;;;;;;;;;;;13.20;99.90;;;;;;4990012;28;19962;-66
2023/06/05 03:08:10;;;;;;;;;;;13.20;99.90;;;;;;5000117;28;19926;-67
2023/06/05 03:10:42;;;;;;;;;;;13.10;99.90;;;;;;4972885;28;19926;-66
2023/06/05 03:13:14;;;;;;;;;;;13.10;99.90;;;;;;4962121;28;20405;-65
2023/06/05 03:15:46;;;;;;;;;;;13.10;99.90;;;;;;4983498;28;20472;-66
2023/06/05 03:18:19;;;;;;;;;;;13.00;99.90;;;;;;4981928;28;19929;-68
2023/06/05 03:20:55;;;;;;;;;;;13.00;99.90;;;;;;4976094;28;20366;-66
2023/06/05 03:23:28;;;;;;;;;;;13.00;99.90;;;;;;4990062;28;20298;-66
2023/06/05 03:26:03;;;;;;;;;;;13.00;99.90;;;;;;4976210;28;19977;-72
2023/06/05 03:28:37;;;;;;;;;;;13.00;99.90;;;;;;4988325;28;19980;-65
2023/06/05 03:31:11;;;;;;;;;;;13.00;99.90;;;;;;4981420;28;19926;-67
2023/06/05 03:33:46;;;;;;;;;;;13.20;99.90;;;;;;4970463;28;20350;-67
2023/06/05 03:36:18;;;;;;;;;;;13.40;99.90;;;;;;4990079;28;19993;-66
2023/06/05 03:38:51;;;;;;;;;;;13.40;99.90;;;;;;4977125;28;19926;-65
2023/06/05 03:41:25;;;;;;;;;;;13.30;99.90;;;;;;4990158;28;20025;-66
2023/06/05 03:43:58;;;;;;;;;;;13.30;99.90;;;;;;4980073;28;19937;-66
2023/06/05 03:46:32;;;;;;;;;;;13.20;99.90;;;;;;4988865;28;19925;-66
2023/06/05 03:49:08;;;;;;;;;;;13.10;99.90;;;;;;4989360;28;19926;-67
2023/06/05 03:51:41;;;;;;;;;;;13.10;99.90;;;;;;4990233;28;19933;-65
2023/06/05 03:54:16;;;;;;;;;;;13.00;99.90;;;;;;4970249;28;19926;-66
2023/06/05 03:56:49;;;;;;;;;;;13.00;99.90;;;;;;4988760;28;19936;-66
2023/06/05 03:59:22;;;;;;;;;;;12.90;99.90;;;;;;4988221;28;19993;-66
2023/06/05 04:02:00;;;;;;;;;;;12.90;99.90;;;;;;4975443;28;19937;-66
2023/06/05 04:04:32;;;;;;;;;;;12.90;99.90;;;;;;4985433;28;19932;-66
2023/06/05 04:07:00;;;;;;;;;;;12.90;99.90;;;;;;4990124;28;20033;-65
2023/06/05 04:09:32;;;;;;;;;;;12.90;99.90;;;;;;4988673;28;19933;-67
2023/06/05 04:12:05;;;;;;;;;;;12.90;99.90;;;;;;4989295;28;20481;-65
2023/06/05 04:14:38;;;;;;;;;;;12.90;99.90;;;;;;5002555;28;19930;-68
2023/06/05 04:17:10;;;;;;;;;;;12.80;99.90;;;;;;4970867;28;19930;-66
2023/06/05 04:19:37;;;;;;;;;;;12.80;99.90;;;;;;4965299;28;19990;-67
2023/06/05 04:22:04;;;;;;;;;;;12.90;99.90;;;;;;4988038;28;19933;-66
2023/06/05 04:24:38;;;;;;;;;;;12.90;99.90;;;;;;4969931;28;19930;-65
2023/06/05 04:27:10;;;;;;;;;;;13.00;99.90;;;;;;4973156;28;19926;-66
2023/06/05 04:29:37;;;;;;;;;;;13.00;99.90;;;;;;4989367;28;19937;-66
2023/06/05 04:32:09;;;;;;;;;;;13.10;99.90;;;;;;4957185;28;19931;-66
2023/06/05 04:34:41;;;;;;;;;;;13.10;99.90;;;;;;4990310;28;19949;-65
2023/06/05 04:37:13;;;;;;;;;;;13.20;99.90;;;;;;4983306;28;19934;-66
2023/06/05 04:39:40;;;;;;;;;;;13.20;99.90;;;;;;4986813;28;19932;-65
2023/06/05 04:42:13;;;;;;;;;;;13.30;99.90;;;;;;4985159;28;19933;-65
2023/06/05 04:44:53;;;;;;;;;;;13.40;99.90;;;;;;4987889;28;20272;-66
2023/06/05 04:47:20;;;;;;;;;;;13.40;99.90;;;;;;4988226;28;20386;-67
2023/06/05 04:49:49;;;;;;;;;;;13.50;99.90;;;;;;4989341;28;19981;-66
2023/06/05 04:52:23;;;;;;;;;;;13.50;99.90;;;;;;4992846;28;19936;-65
2023/06/05 04:54:55;;;;;;;;;;;13.60;99.90;;;;;;5002550;28;19930;-67
2023/06/05 04:57:27;;;;;;;;;;;13.70;99.90;;;;;;4992922;28;19926;-66
2023/06/05 05:00:04;;;;;;;;;;;13.70;99.90;;;;;;4991012;28;19977;-66
2023/06/05 05:02:36;;;;;;;;;;;13.70;99.90;;;;;;4964327;28;20406;-66
2023/06/05 05:05:08;;;;;;;;;;;13.70;99.90;;;;;;4964313;28;19992;-66
2023/06/05 05:07:42;;;;;;;;;;;13.70;99.90;;;;;;4971948;28;19926;-68
2023/06/05 05:10:15;;;;;;;;;;;13.70;99.90;;;;;;4992194;23;20318;-65
2023/06/05 05:12:42;;;;;;;;;;;13.70;99.90;;;;;;4994158;28;19930;-66
2023/06/05 05:15:15;;;;;;;;;;;13.80;99.90;;;;;;4993622;28;19926;-66
2023/06/05 05:17:49;;;;;;;;;;;13.90;99.90;;;;;;4993095;28;19930;-65
2023/06/05 05:20:16;;;;;;;;;;;13.90;99.90;;;;;;4993117;28;20034;-65
2023/06/05 05:22:43;;;;;;;;;;;13.90;99.90;;;;;;5000675;28;19926;-66
2023/06/05 05:25:16;;;;;;;;;;;14.00;99.90;;;;;;4991137;28;19932;-65
2023/06/05 05:27:47;;;;;;;;;;;14.00;99.90;;;;;;4991514;28;19926;-65
2023/06/05 05:30:19;;;;;;;;;;;14.10;99.90;;;;;;4990798;28;19933;-65
2023/06/05 05:32:46;;;;;;;;;;;14.20;99.90;;;;;;4991286;28;19933;-65
2023/06/05 05:35:18;;;;;;;;;;;14.20;99.90;;;;;;4990567;28;19930;-65
2023/06/05 05:37:50;;;;;;;;;;;14.30;99.90;;;;;;4991585;28;19951;-65
2023/06/05 05:40:22;;;;;;;;;;;14.30;99.90;;;;;;4993219;28;19926;-65
2023/06/05 05:42:54;;;;;;;;;;;14.40;99.90;;;;;;4993503;28;19932;-65
2023/06/05 05:45:26;;;;;;;;;;;14.50;99.90;;;;;;4985294;28;20099;-65
2023/06/05 05:47:58;;;;;;;;;;;14.50;99.90;;;;;;4985154;28;20425;-66
2023/06/05 05:50:29;;;;;;;;;;;14.60;99.90;;;;;;4991141;28;20326;-66
2023/06/05 05:53:01;;;;;;;;;;;14.60;99.90;;;;;;4991167;28;19927;-65
2023/06/05 05:55:33;;;;;;;;;;;14.70;99.90;;;;;;4989116;28;19926;-65
2023/06/05 05:58:05;;;;;;;;;;;14.70;99.90;;;;;;4993986;28;19934;-65
2023/06/05 06:00:36;;;;;;;;;;;14.80;99.90;;;;;;4993995;28;20386;-65
2023/06/05 06:03:08;;;;;;;;;;;14.80;99.90;;;;;;4991534;28;19969;-66
2023/06/05 06:05:40;;;;;;;;;;;14.80;99.90;;;;;;4990317;28;19926;-65
2023/06/05 06:08:12;;;;;;;;;;;14.80;99.90;;;;;;4988294;28;19930;-65
2023/06/05 06:10:38;;;;;;;;;;;14.90;99.90;;;;;;4991573;28;19941;-65
2023/06/05 06:13:10;;;;;;;;;;;14.90;99.90;;;;;;4999387;28;20417;-66
2023/06/05 06:15:42;;;;;;;;;;;15.00;99.90;;;;;;4990878;28;19937;-65
2023/06/05 06:18:14;;;;;;;;;;;15.10;99.90;;;;;;4980537;28;19958;-65
2023/06/05 06:20:40;;;;;;;;;;;15.20;99.90;;;;;;4990424;28;20365;-65
2023/06/05 06:23:12;;;;;;;;;;;15.30;99.90;;;;;;4990302;28;20016;-66
2023/06/05 06:25:44;;;;;;;;;;;15.40;99.90;;;;;;4976107;28;19926;-65
2023/06/05 06:28:16;;;;;;;;;;;15.50;99.90;;;;;;4990341;28;20441;-66
2023/06/05 06:30:48;;;;;;;;;;;15.60;99.90;;;;;;4990777;28;19925;-65
2023/06/05 06:33:16;;;;;;;;;;;15.70;99.90;;;;;;4992725;28;20017;-66
2023/06/05 06:35:43;;;;;;;;;;;15.80;99.90;;;;;;4988319;28;19997;-66
2023/06/05 06:38:10;;;;;;;;;;;15.80;99.90;;;;;;4988251;28;20021;-66
2023/06/05 06:40:42;;;;;;;;;;;15.90;99.90;;;;;;5003095;28;20028;-66
2023/06/05 06:43:14;;;;;;;;;;;16.00;99.90;;;;;;4988338;28;19930;-66
2023/06/05 06:45:49;;;;;;;;;;;16.10;99.90;;;;;;4990264;28;20413;-66
2023/06/05 06:48:21;;;;;;;;;;;16.10;99.90;;;;;;4993147;28;19952;-66
2023/06/05 06:50:53;;;;;;;;;;;16.20;99.90;;;;;;4989593;28;20313;-65
2023/06/05 06:53:25;;;;;;;;;;;16.30;99.90;;;;;;4978055;28;19969;-66
2023/06/05 06:55:57;;;;;;;;;;;16.40;99.90;;;;;;4983927;28;19968;-66
2023/06/05 06:58:24;;;;;;;;;;;16.50;99.90;;;;;;4986925;28;20302;-66
2023/06/05 07:00:55;;;;;;;;;;;16.60;99.90;;;;;;4990499;28;19932;-65
2023/06/05 07:03:28;;;;;;;;;;;16.70;99.90;;;;;;4982897;28;19926;-66
2023/06/05 07:05:59;;;;;;;;;;;16.80;99.90;;;;;;4996241;28;19926;-66
2023/06/05 07:08:31;;;;;;;;;;;16.90;99.90;;;;;;4978008;28;19926;-66
2023/06/05 07:11:03;;;;;;;;;;;17.10;99.90;;;;;;4976920;28;19926;-65
2023/06/05 07:13:35;;;;;;;;;;;17.20;99.90;;;;;;4976050;28;19930;-66
2023/06/05 07:16:02;;;;;;;;;;;17.30;99.90;;;;;;4976360;28;19930;-66
2023/06/05 07:18:35;;;;;;;;;;;17.50;99.90;;;;;;4990174;28;20309;-66
2023/06/05 07:21:07;;;;;;;;;;;17.60;99.90;;;;;;4989987;28;19926;-66
2023/06/05 07:23:34;;;;;;;;;;;17.80;99.90;;;;;;4990644;28;19932;-66
2023/06/05 07:26:06;;;;;;;;;;;17.90;99.90;;;;;;4984712;28;19926;-66
2023/06/05 07:28:38;;;;;;;;;;;18.00;99.90;;;;;;4982800;28;19926;-66
2023/06/05 07:31:10;;;;;;;;;;;18.20;99.90;;;;;;4980628;28;19933;-65
2023/06/05 07:33:42;;;;;;;;;;;18.40;99.90;;;;;;4989728;28;19930;-66
2023/06/05 07:36:14;;;;;;;;;;;18.50;99.90;;;;;;4991121;28;19926;-66
2023/06/05 07:38:46;;;;;;;;;;;18.70;99.90;;;;;;4993058;28;19933;-66
2023/06/05 07:41:13;;;;;;;;;;;18.80;99.90;;;;;;4991944;28;19925;-65
2023/06/05 07:43:44;;;;;;;;;;;19.00;99.90;;;;;;4977303;28;19926;-65
2023/06/05 07:46:16;;;;;;;;;;;19.10;99.90;;;;;;4980365;28;20013;-65
2023/06/05 07:48:48;;;;;;;;;;;19.20;99.90;;;;;;4983744;28;19929;-66
2023/06/05 07:51:20;;;;;;;;;;;19.30;99.90;;;;;;4989783;28;19947;-65
2023/06/05 07:53:52;;;;;;;;;;;19.30;99.90;;;;;;4984758;28;19965;-66
2023/06/05 07:56:19;;;;;;;;;;;19.40;99.90;;;;;;4987910;28;19957;-66
2023/06/05 07:58:51;;;;;;;;;;;19.50;99.90;;;;;;4991083;28;19926;-66
2023/06/05 08:01:23;;;;;;;;;;;19.60;99.90;;;;;;4991176;28;20283;-66
2023/06/05 08:03:55;;;;;;;;;;;19.70;99.90;;;;;;4976654;28;20297;-65
2023/06/05 08:06:27;;;;;;;;;;;19.80;99.90;;;;;;4990303;28;19926;-66
2023/06/05 08:08:59;;;;;;;;;;;19.90;99.90;;;;;;4979649;28;19925;-66
2023/06/05 08:11:31;;;;;;;;;;;20.00;99.90;;;;;;4980827;28;19930;-66
2023/06/05 08:14:05;;;;;;;;;;;20.10;99.90;;;;;;4985603;28;19926;-66
2023/06/05 08:16:37;;;;;;;;;;;20.30;99.90;;;;;;4987381;28;19951;-66
2023/06/05 08:19:04;;;;;;;;;;;20.30;99.90;;;;;;4992283;28;19989;-66
2023/06/05 08:21:39;;;;;;;;;;;20.40;99.90;;;;;;4985079;28;19961;-66
2023/06/05 08:24:11;;;;;;;;;;;20.50;99.90;;;;;;4990781;28;19926;-66
2023/06/05 08:26:38;;;;;;;;;;;20.50;99.90;;;;;;4972573;28;19926;-66
2023/06/05 08:29:12;;;;;;;;;;;20.50;99.90;;;;;;4985498;28;20024;-66
2023/06/05 08:31:38;;;;;;;;;;;20.60;99.90;;;;;;4984427;28;19957;-66
2023/06/05 08:34:10;;;;;;;;;;;20.70;99.90;;;;;;4989732;28;19949;-66
2023/06/05 08:36:42;;;;;;;;;;;20.80;99.90;;;;;;4989844;28;19930;-66
2023/06/05 08:39:10;;;;;;;;;;;21.00;99.90;;;;;;4990786;28;19933;-65
2023/06/05 08:41:37;;;;;;;;;;;21.00;99.90;;;;;;4991004;28;19940;-66
2023/06/05 08:44:04;;;;;;;;;;;21.10;99.90;;;;;;5003545;28;20428;-66
2023/06/05 08:46:36;;;;;;;;;;;21.30;99.90;;;;;;4989863;28;19926;-66
2023/06/05 08:49:09;;;;;;;;;;;21.40;99.90;;;;;;4987174;28;19926;-66
2023/06/05 08:51:41;;;;;;;;;;;21.50;99.90;;;;;;4985695;28;19926;-66
2023/06/05 08:54:13;;;;;;;;;;;21.50;99.90;;;;;;4983585;28;20407;-66
2023/06/05 08:56:41;;;;;;;;;;;21.60;99.90;;;;;;4987405;28;20016;-66
2023/06/05 08:59:09;;;;;;;;;;;21.70;99.90;;;;;;4989970;28;19926;-66
2023/06/05 09:01:41;;;;;;;;;;;21.80;99.90;;;;;;5004301;28;20375;-66
2023/06/05 09:04:08;;;;;;;;;;;21.90;99.90;;;;;;4990699;28;19976;-66
2023/06/05 09:06:36;;;;;;;;;;;22.00;99.90;;;;;;4986770;28;20032;-66
2023/06/05 09:09:08;;;;;;;;;;;22.10;99.90;;;;;;4985027;28;19930;-66
2023/06/05 09:11:40;;;;;;;;;;;22.20;99.90;;;;;;4987639;28;19997;-65
2023/06/05 09:14:12;;;;;;;;;;;22.30;99.90;;;;;;4982143;28;19932;-66
2023/06/05 09:16:42;;;;;;;;;;;22.40;99.90;;;;;;4985985;28;19966;-66
2023/06/05 09:19:13;;;;;;;;;;;22.50;99.90;;;;;;4985799;28;19937;-66
2023/06/05 09:21:53;;;;;;;;;;;22.60;99.90;;;;;;4987872;28;19958;-65
2023/06/05 09:24:27;;;;;;;;;;;22.70;99.90;;;;;;4977065;28;19926;-66
2023/06/05 09:27:01;;;;;;;;;;;22.90;99.90;;;;;;4971424;28;19926;-66
2023/06/05 09:29:29;;;;;;;;;;;22.90;99.20;;;;;;4972607;28;19941;-66
2023/06/05 09:31:57;;;;;;;;;;;23.00;99.50;;;;;;4978399;28;20398;-66
2023/06/05 09:34:30;;;;;;;;;;;23.10;98.50;;;;;;4988756;28;19932;-66
2023/06/05 09:37:04;;;;;;;;;;;23.30;98.80;;;;;;4992779;28;19930;-66
2023/06/05 09:39:37;;;;;;;;;;;23.40;98.60;;;;;;4990438;28;19930;-66
2023/06/05 09:42:08;;;;;;;;;;;23.60;96.50;;;;;;4977741;28;19933;-66
2023/06/05 09:44:36;;;;;;;;;;;23.70;97.10;;;;;;4984796;28;20028;-66
2023/06/05 09:47:09;;;;;;;;;;;23.70;96.50;;;;;;4991758;28;20287;-66
2023/06/05 09:49:39;;;;;;;;;;;23.60;96.80;;;;;;4980837;28;19930;-66
2023/06/05 09:52:07;;;;;;;;;;;23.40;96.10;;;;;;4989578;28;19957;-65
2023/06/05 09:54:41;;;;;;;;;;;23.50;95.40;;;;;;4992918;28;20033;-66
2023/06/05 09:57:14;;;;;;;;;;;23.60;95.20;;;;;;4986259;28;19926;-65
2023/06/05 09:59:51;;;;;;;;;;;23.70;95.20;;;;;;4992900;28;20012;-65
2023/06/05 10:02:24;;;;;;;;;;;23.80;94.20;;;;;;4981042;28;19972;-65
2023/06/05 10:04:56;;;;;;;;;;;23.90;93.20;;;;;;4991392;28;19930;-64
2023/06/05 10:07:29;;;;;;;;;;;23.90;92.00;;;;;;4984774;28;19932;-65
2023/06/05 10:10:02;;;;;;;;;;;24.10;92.60;;;;;;4983214;28;19926;-66
2023/06/05 10:12:34;;;;;;;;;;;24.20;91.20;;;;;;4980594;28;19933;-66
2023/06/05 10:15:01;;;;;;;;;;;24.40;90.50;;;;;;4987344;28;19930;-65
2023/06/05 10:17:36;;;;;;;;;;;24.50;91.30;;;;;;4983683;28;19933;-65
2023/06/05 10:20:08;;;;;;;;;;;24.60;90.10;;;;;;4985443;28;20017;-66
2023/06/05 10:22:41;;;;;;;;;;;24.50;89.80;;;;;;4991615;28;19932;-66
2023/06/05 10:25:15;;;;;;;;;;;24.60;85.50;;;;;;4984514;28;20020;-66
2023/06/05 10:27:43;;;;;;;;;;;24.50;87.30;;;;;;4989282;28;20053;-69
2023/06/05 10:30:15;;;;;;;;;;;24.50;88.90;;;;;;4986176;28;20054;-67
2023/06/05 10:33:01;;;;;;;;;;;24.50;85.70;;;;;;4987081;28;19973;-68
2023/06/05 10:35:34;;;;;;;;;;;24.60;88.80;;;;;;4991592;28;20021;-67
2023/06/05 10:38:17;;;;;;;;;;;24.70;83.80;;;;;;4984642;28;19926;-68
2023/06/05 10:41:04;;;;;;;;;;;24.80;83.00;;;;;;4984758;28;19941;-68
2023/06/05 10:43:51;;;;;;;;;;;24.90;82.20;;;;;;4973675;28;19965;-68
2023/06/05 10:46:29;;;;;;;;;;;25.00;83.50;;;;;;4985278;28;19934;-67
2023/06/05 10:49:12;;;;;;;;;;;25.20;80.90;;;;;;4986137;28;19925;-67
2023/06/05 10:51:48;;;;;;;;;;;25.30;81.50;;;;;;4986033;28;19948;-68
2023/06/05 10:54:23;;;;;;;;;;;25.50;81.30;;;;;;4981398;28;20401;-67
2023/06/05 10:56:59;;;;;;;;;;;25.40;80.80;;;;;;4979175;28;20101;-68
2023/06/05 10:59:32;;;;;;;;;;;25.40;80.10;;;;;;4987670;28;20301;-67
2023/06/05 11:02:04;;;;;;;;;;;25.20;79.20;;;;;;4991686;28;20309;-67
2023/06/05 11:04:48;;;;;;;;;;;25.00;80.50;;;;;;4991875;28;19930;-68
2023/06/05 11:07:21;;;;;;;;;;;25.20;80.70;;;;;;5001968;28;19937;-67
2023/06/05 11:10:05;;;;;;;;;;;25.30;79.20;;;;;;4984989;28;19932;-66
2023/06/05 11:12:43;;;;;;;;;;;25.50;74.80;;;;;;5000727;28;20363;-66
2023/06/05 11:15:12;;;;;;;;;;;25.60;78.80;;;;;;4985523;28;19980;-65
2023/06/05 11:17:45;;;;;;;;;;;25.70;79.50;;;;;;4980903;28;20271;-65
2023/06/05 11:20:22;;;;;;;;;;;25.40;78.40;;;;;;4984992;28;19930;-65
2023/06/05 11:22:57;;;;;;;;;;;25.20;78.60;;;;;;4979796;28;19984;-65
2023/06/05 11:25:30;;;;;;;;;;;25.00;75.70;;;;;;4986800;28;20026;-65
2023/06/05 11:28:01;;;;;;;;;;;24.90;73.50;;;;;;4986266;28;19929;-65
2023/06/05 11:30:38;;;;;;;;;;;24.80;74.80;;;;;;4990078;28;19933;-65
2023/06/05 11:33:12;;;;;;;;;;;24.90;75.00;;;;;;4988908;28;20025;-65
2023/06/05 11:35:45;;;;;;;;;;;24.90;74.20;;;;;;4984391;28;19930;-65
2023/06/05 11:38:12;;;;;;;;;;;24.90;73.60;;;;;;4982930;28;20048;-65
2023/06/05 11:40:45;;;;;;;;;;;24.90;76.30;;;;;;4988313;28;19930;-65
2023/06/05 11:43:18;;;;;;;;;;;25.10;74.10;;;;;;4985136;28;20036;-64
2023/06/05 11:45:51;;;;;;;;;;;25.40;73.20;;;;;;4984469;28;20414;-65
2023/06/05 11:48:24;;;;;;;;;;;25.60;72.70;;;;;;4982540;28;19933;-65
2023/06/05 11:51:03;;;;;;;;;;;26.10;72.80;;;;;;4979864;28;19976;-65
2023/06/05 11:53:37;;;;;;;;;;;26.10;67.40;;;;;;4987917;28;19934;-65
2023/06/05 11:56:15;;;;;;;;;;;26.30;69.20;;;;;;4981761;28;20310;-65
2023/06/05 11:58:41;;;;;;;;;;;26.40;71.80;;;;;;4983948;28;20029;-65
2023/06/05 12:01:14;;;;;;;;;;;26.50;67.80;;;;;;4982843;28;19930;-65
2023/06/05 12:03:46;;;;;;;;;;;26.30;66.70;;;;;;4981706;28;19926;-65
2023/06/05 12:06:13;;;;;;;;;;;26.00;70.00;;;;;;4986061;28;20326;-65
2023/06/05 12:08:46;;;;;;;;;;;25.80;71.40;;;;;;4983231;28;19970;-65
2023/06/05 12:11:20;;;;;;;;;;;25.40;70.00;;;;;;4974927;28;19933;-65
2023/06/05 12:13:55;;;;;;;;;;;25.20;72.50;;;;;;4983184;28;20302;-64
2023/06/05 12:16:34;;;;;;;;;;;25.10;73.00;;;;;;4978663;28;19961;-65
2023/06/05 12:19:02;;;;;;;;;;;25.10;73.70;;;;;;4986227;28;19932;-65
2023/06/05 12:21:34;;;;;;;;;;;25.40;73.80;;;;;;4988038;28;19929;-65
2023/06/05 12:24:06;;;;;;;;;;;25.40;72.40;;;;;;4985444;28;19980;-65
2023/06/05 12:26:53;;;;;;;;;;;25.50;73.30;;;;;;4985813;28;19935;-65
2023/06/05 12:29:27;;;;;;;;;;;25.80;75.50;;;;;;4984235;28;19965;-65
2023/06/05 12:32:00;;;;;;;;;;;26.10;71.60;;;;;;4982840;28;20378;-67
2023/06/05 12:34:44;;;;;;;;;;;26.20;72.10;;;;;;4984115;28;19936;-65
2023/06/05 12:37:34;;;;;;;;;;;26.30;71.50;;;;;;4978567;28;19930;-65
2023/06/05 12:40:09;;;;;;;;;;;26.50;70.00;;;;;;4983086;28;20508;-65
2023/06/05 12:42:43;;;;;;;;;;;26.60;67.50;;;;;;4983784;28;19926;-65
2023/06/05 12:45:10;;;;;;;;;;;26.70;69.20;;;;;;4979075;28;19930;-65
2023/06/05 12:47:43;;;;;;;;;;;26.80;69.00;;;;;;4985684;28;19926;-65
2023/06/05 12:50:13;;;;;;;;;;;26.90;66.10;;;;;;4982847;28;19929;-65
2023/06/05 12:52:40;;;;;;;;;;;27.10;66.10;;;;;;4984280;28;19953;-65
2023/06/05 12:55:13;;;;;;;;;;;27.20;65.60;;;;;;4984025;28;20013;-65
2023/06/05 12:57:45;;;;;;;;;;;27.30;65.90;;;;;;4986560;28;20305;-64
2023/06/05 13:00:18;;;;;;;;;;;27.40;67.40;;;;;;4980344;28;20016;-65
2023/06/05 13:02:50;;;;;;;;;;;27.20;62.20;;;;;;4980811;28;20425;-65
2023/06/05 13:05:17;;;;;;;;;;;27.20;62.90;;;;;;4977322;28;20025;-65
2023/06/05 13:07:44;;;;;;;;;;;27.20;63.60;;;;;;4983445;28;19926;-66
2023/06/05 13:10:16;;;;;;;;;;;27.30;65.70;;;;;;4978237;28;20012;-65
2023/06/05 13:12:48;;;;;;;;;;;27.40;64.90;;;;;;4989650;28;19936;-65
2023/06/05 13:15:20;;;;;;;;;;;27.70;65.70;;;;;;4991767;28;19930;-65
2023/06/05 13:17:52;;;;;;;;;;;27.60;66.10;;;;;;4993023;28;19926;-65
2023/06/05 13:20:25;;;;;;;;;;;27.30;66.10;;;;;;4982523;28;20283;-65
2023/06/05 13:22:56;;;;;;;;;;;26.90;65.20;;;;;;4995415;28;19929;-65
2023/06/05 13:25:23;;;;;;;;;;;26.50;64.70;;;;;;4982198;28;20460;-65
2023/06/05 13:27:55;;;;;;;;;;;26.40;65.80;;;;;;4982208;28;20523;-65
2023/06/05 13:30:22;;;;;;;;;;;26.70;64.40;;;;;;4985825;28;19988;-65
2023/06/05 13:32:52;;;;;;;;;;;27.00;63.00;;;;;;4988327;28;20434;-65
2023/06/05 13:35:19;;;;;;;;;;;27.20;62.10;;;;;;4988053;28;20378;-65
2023/06/05 13:37:51;;;;;;;;;;;27.50;61.40;;;;;;4989520;28;19935;-65
2023/06/05 13:40:26;;;;;;;;;;;27.60;59.70;;;;;;4990847;28;19933;-65
2023/06/05 13:42:58;;;;;;;;;;;27.50;62.50;;;;;;4986015;28;20302;-65
2023/06/05 13:45:30;;;;;;;;;;;27.40;63.20;;;;;;4989527;28;20013;-65
2023/06/05 13:48:02;;;;;;;;;;;27.50;60.70;;;;;;4983231;28;19926;-65
2023/06/05 13:50:34;;;;;;;;;;;27.40;61.90;;;;;;4981152;28;19926;-65
2023/06/05 13:53:05;;;;;;;;;;;27.50;62.40;;;;;;4979199;28;19934;-65
2023/06/05 13:55:39;;;;;;;;;;;27.80;62.60;;;;;;4979388;28;19936;-65
2023/06/05 13:58:11;;;;;;;;;;;28.10;64.50;;;;;;4987640;28;20021;-65
2023/06/05 14:00:38;;;;;;;;;;;28.20;62.20;;;;;;4991585;28;19951;-65
2023/06/05 14:03:09;;;;;;;;;;;28.50;62.10;;;;;;4989956;28;19954;-65
2023/06/05 14:05:37;;;;;;;;;;;28.60;62.40;;;;;;4990997;28;19965;-65
2023/06/05 14:08:04;;;;;;;;;;;28.80;63.10;;;;;;4990046;28;19972;-65
2023/06/05 14:10:36;;;;;;;;;;;29.00;60.90;;;;;;4987754;28;19930;-65
2023/06/05 14:13:08;;;;;;;;;;;28.90;59.10;;;;;;4990180;28;20418;-65
2023/06/05 14:15:40;;;;;;;;;;;28.90;59.00;;;;;;4989017;28;19942;-65
2023/06/05 14:18:13;;;;;;;;;;;28.90;58.60;;;;;;4987124;28;19936;-64
2023/06/05 14:20:45;;;;;;;;;;;29.20;58.50;;;;;;4983892;28;19937;-65
2023/06/05 14:23:16;;;;;;;;;;;29.30;58.70;;;;;;4990182;28;19957;-65
2023/06/05 14:25:51;;;;;;;;;;;29.30;59.30;;;;;;4992300;28;19961;-64
2023/06/05 14:28:23;;;;;;;;;;;29.10;58.30;;;;;;4986675;28;19981;-65
2023/06/05 14:30:55;;;;;;;;;;;29.20;58.60;;;;;;4989114;28;19933;-65
2023/06/05 14:33:27;;;;;;;;;;;28.90;58.60;;;;;;4989704;28;20336;-64
2023/06/05 14:35:59;;;;;;;;;;;28.60;58.50;;;;;;4990362;28;20017;-64
2023/06/05 14:38:26;;;;;;;;;;;28.70;58.40;;;;;;5001469;28;20024;-65
2023/06/05 14:40:58;;;;;;;;;;;29.20;58.80;;;;;;4986067;28;19980;-65
2023/06/05 14:43:29;;;;;;;;;;;29.60;57.80;;;;;;4983784;28;19926;-68